sensor_id;sensor_type;location;lat;lon;timestamp;P1;durP1;ratioP1;P2;durP2;ratioP2
12689;SDS011;6409;56.294;14.480;2023-03-23T00:01:27;3.63;;;1.70;;
12689;SDS011;6409;56.294;14.480;2023-03-23T00:03:57;2.30;;;1.97;;
12689;SDS011;6409;56.294;14.480;2023-03-23T00:06:25;3.33;;;2.50;;
12689;SDS011;6409;56.294;14.480;2023-03-23T00:08:58;4.27;;;2.63;;
12689;SDS011;6409;56.294;14.480;2023-03-23T00:11:27;2.57;;;1.63;;
12689;SDS011;6409;56.294;14.480;2023-03-23T00:13:56;2.53;;;2.30;;
12689;SDS011;6409;56.294;14.480;2023-03-23T00:16:27;2.47;;;1.33;;
12689;SDS011;6409;56.294;14.480;2023-03-23T00:18:57;2.33;;;1.93;;
12689;SDS011;6409;56.294;14.480;2023-03-23T00:21:26;3.23;;;2.00;;
12689;SDS011;6409;56.294;14.480;2023-03-23T00:24:00;3.20;;;2.00;;
12689;SDS011;6409;56.294;14.480;2023-03-23T00:26:28;2.30;;;1.80;;
12689;SDS011;6409;56.294;14.480;2023-03-23T00:29:00;2.20;;;2.00;;
12689;SDS011;6409;56.294;14.480;2023-03-23T00:31:27;1.77;;;1.67;;
12689;SDS011;6409;56.294;14.480;2023-03-23T00:33:56;3.10;;;2.07;;
12689;SDS011;6409;56.294;14.480;2023-03-23T00:36:26;1.97;;;1.77;;
12689;SDS011;6409;56.294;14.480;2023-03-23T00:38:53;7.33;;;2.37;;
12689;SDS011;6409;56.294;14.480;2023-03-23T00:41:23;2.13;;;1.73;;
12689;SDS011;6409;56.294;14.480;2023-03-23T00:43:52;1.87;;;1.60;;
12689;SDS011;6409;56.294;14.480;2023-03-23T00:46:20;2.57;;;1.67;;
12689;SDS011;6409;56.294;14.480;2023-03-23T00:48:47;2.47;;;1.90;;
12689;SDS011;6409;56.294;14.480;2023-03-23T00:51:15;2.77;;;1.93;;
12689;SDS011;6409;56.294;14.480;2023-03-23T00:53:42;2.23;;;2.00;;
12689;SDS011;6409;56.294;14.480;2023-03-23T00:56:09;3.23;;;1.90;;
12689;SDS011;6409;56.294;14.480;2023-03-23T00:58:36;1.63;;;1.53;;
12689;SDS011;6409;56.294;14.480;2023-03-23T01:01:03;4.40;;;1.90;;
12689;SDS011;6409;56.294;14.480;2023-03-23T01:03:32;4.63;;;1.57;;
12689;SDS011;6409;56.294;14.480;2023-03-23T01:06:03;2.37;;;1.83;;
12689;SDS011;6409;56.294;14.480;2023-03-23T01:08:31;1.80;;;1.70;;
12689;SDS011;6409;56.294;14.480;2023-03-23T01:11:01;1.70;;;1.53;;
12689;SDS011;6409;56.294;14.480;2023-03-23T01:13:29;1.77;;;1.67;;
12689;SDS011;6409;56.294;14.480;2023-03-23T01:15:56;1.60;;;1.37;;
12689;SDS011;6409;56.294;14.480;2023-03-23T01:18:23;1.70;;;1.53;;
12689;SDS011;6409;56.294;14.480;2023-03-23T01:20:51;2.17;;;1.53;;
12689;SDS011;6409;56.294;14.480;2023-03-23T01:23:18;1.30;;;1.20;;
12689;SDS011;6409;56.294;14.480;2023-03-23T01:25:45;2.30;;;1.40;;
12689;SDS011;6409;56.294;14.480;2023-03-23T01:28:12;1.30;;;1.20;;
12689;SDS011;6409;56.294;14.480;2023-03-23T01:30:39;2.80;;;1.77;;
12689;SDS011;6409;56.294;14.480;2023-03-23T01:33:06;1.37;;;1.27;;
12689;SDS011;6409;56.294;14.480;2023-03-23T01:35:36;1.40;;;1.30;;
12689;SDS011;6409;56.294;14.480;2023-03-23T01:38:05;2.50;;;1.47;;
12689;SDS011;6409;56.294;14.480;2023-03-23T01:40:32;1.10;;;1.10;;
12689;SDS011;6409;56.294;14.480;2023-03-23T01:42:59;1.80;;;1.43;;
12689;SDS011;6409;56.294;14.480;2023-03-23T01:45:32;1.37;;;1.27;;
12689;SDS011;6409;56.294;14.480;2023-03-23T01:48:10;1.00;;;1.00;;
12689;SDS011;6409;56.294;14.480;2023-03-23T01:50:43;0.80;;;0.80;;
12689;SDS011;6409;56.294;14.480;2023-03-23T01:53:14;0.73;;;0.63;;
12689;SDS011;6409;56.294;14.480;2023-03-23T01:55:42;3.07;;;1.10;;
12689;SDS011;6409;56.294;14.480;2023-03-23T01:58:13;1.10;;;1.00;;
12689;SDS011;6409;56.294;14.480;2023-03-23T02:00:41;1.33;;;0.97;;
12689;SDS011;6409;56.294;14.480;2023-03-23T02:03:08;0.70;;;0.70;;
12689;SDS011;6409;56.294;14.480;2023-03-23T02:05:39;1.20;;;1.10;;
12689;SDS011;6409;56.294;14.480;2023-03-23T02:08:07;0.83;;;0.73;;
12689;SDS011;6409;56.294;14.480;2023-03-23T02:10:37;0.90;;;0.90;;
12689;SDS011;6409;56.294;14.480;2023-03-23T02:13:04;1.40;;;1.30;;
12689;SDS011;6409;56.294;14.480;2023-03-23T02:15:34;1.20;;;1.10;;
12689;SDS011;6409;56.294;14.480;2023-03-23T02:18:08;1.30;;;1.20;;
12689;SDS011;6409;56.294;14.480;2023-03-23T02:20:52;1.80;;;1.70;;
12689;SDS011;6409;56.294;14.480;2023-03-23T02:26:38;2.30;;;1.80;;
12689;SDS011;6409;56.294;14.480;2023-03-23T02:29:23;9.13;;;1.70;;
12689;SDS011;6409;56.294;14.480;2023-03-23T02:32:11;1.67;;;1.53;;
12689;SDS011;6409;56.294;14.480;2023-03-23T02:34:45;2.43;;;1.80;;
12689;SDS011;6409;56.294;14.480;2023-03-23T02:37:14;3.10;;;1.43;;
12689;SDS011;6409;56.294;14.480;2023-03-23T02:39:47;3.70;;;1.77;;
12689;SDS011;6409;56.294;14.480;2023-03-23T02:42:16;2.47;;;1.70;;
12689;SDS011;6409;56.294;14.480;2023-03-23T02:44:45;3.60;;;1.70;;
12689;SDS011;6409;56.294;14.480;2023-03-23T02:47:13;5.57;;;1.93;;
12689;SDS011;6409;56.294;14.480;2023-03-23T02:49:42;2.23;;;1.70;;
12689;SDS011;6409;56.294;14.480;2023-03-23T02:52:14;2.53;;;1.70;;
12689;SDS011;6409;56.294;14.480;2023-03-23T02:54:44;2.40;;;1.80;;
12689;SDS011;6409;56.294;14.480;2023-03-23T02:57:13;3.27;;;2.17;;
12689;SDS011;6409;56.294;14.480;2023-03-23T02:59:41;2.70;;;1.90;;
12689;SDS011;6409;56.294;14.480;2023-03-23T03:02:08;2.37;;;1.90;;
12689;SDS011;6409;56.294;14.480;2023-03-23T03:04:37;2.30;;;1.97;;
12689;SDS011;6409;56.294;14.480;2023-03-23T03:07:10;2.00;;;1.70;;
12689;SDS011;6409;56.294;14.480;2023-03-23T03:09:50;3.10;;;2.27;;
12689;SDS011;6409;56.294;14.480;2023-03-23T03:12:21;3.77;;;2.40;;
12689;SDS011;6409;56.294;14.480;2023-03-23T03:14:51;3.10;;;2.30;;
12689;SDS011;6409;56.294;14.480;2023-03-23T03:17:23;2.40;;;1.80;;
12689;SDS011;6409;56.294;14.480;2023-03-23T03:19:52;4.77;;;2.70;;
12689;SDS011;6409;56.294;14.480;2023-03-23T03:22:23;3.17;;;2.20;;
12689;SDS011;6409;56.294;14.480;2023-03-23T03:24:53;4.07;;;2.40;;
12689;SDS011;6409;56.294;14.480;2023-03-23T03:27:22;3.40;;;1.90;;
12689;SDS011;6409;56.294;14.480;2023-03-23T03:29:51;2.80;;;1.80;;
12689;SDS011;6409;56.294;14.480;2023-03-23T03:32:22;2.97;;;2.03;;
12689;SDS011;6409;56.294;14.480;2023-03-23T03:34:52;4.20;;;2.40;;
12689;SDS011;6409;56.294;14.480;2023-03-23T03:37:19;2.60;;;2.00;;
12689;SDS011;6409;56.294;14.480;2023-03-23T03:39:48;2.43;;;2.23;;
12689;SDS011;6409;56.294;14.480;2023-03-23T03:42:16;4.03;;;2.20;;
12689;SDS011;6409;56.294;14.480;2023-03-23T03:44:42;2.80;;;1.63;;
12689;SDS011;6409;56.294;14.480;2023-03-23T03:47:09;7.43;;;2.00;;
12689;SDS011;6409;56.294;14.480;2023-03-23T03:49:36;3.60;;;2.43;;
12689;SDS011;6409;56.294;14.480;2023-03-23T03:52:03;3.63;;;2.27;;
12689;SDS011;6409;56.294;14.480;2023-03-23T03:54:30;2.93;;;2.40;;
12689;SDS011;6409;56.294;14.480;2023-03-23T03:56:59;4.30;;;2.27;;
12689;SDS011;6409;56.294;14.480;2023-03-23T03:59:25;3.00;;;2.43;;
12689;SDS011;6409;56.294;14.480;2023-03-23T04:01:52;5.43;;;3.27;;
12689;SDS011;6409;56.294;14.480;2023-03-23T04:04:19;5.20;;;3.37;;
12689;SDS011;6409;56.294;14.480;2023-03-23T04:06:47;3.47;;;2.77;;
12689;SDS011;6409;56.294;14.480;2023-03-23T04:09:14;4.47;;;2.83;;
12689;SDS011;6409;56.294;14.480;2023-03-23T04:11:41;4.07;;;2.97;;
12689;SDS011;6409;56.294;14.480;2023-03-23T04:14:09;5.90;;;3.40;;
12689;SDS011;6409;56.294;14.480;2023-03-23T04:16:36;4.73;;;3.10;;
12689;SDS011;6409;56.294;14.480;2023-03-23T04:19:03;4.40;;;2.87;;
12689;SDS011;6409;56.294;14.480;2023-03-23T04:21:30;5.30;;;3.60;;
12689;SDS011;6409;56.294;14.480;2023-03-23T04:23:57;6.70;;;3.63;;
12689;SDS011;6409;56.294;14.480;2023-03-23T04:26:25;4.27;;;3.10;;
12689;SDS011;6409;56.294;14.480;2023-03-23T04:28:53;6.10;;;3.50;;
12689;SDS011;6409;56.294;14.480;2023-03-23T04:31:22;5.63;;;3.50;;
12689;SDS011;6409;56.294;14.480;2023-03-23T04:33:50;4.63;;;3.30;;
12689;SDS011;6409;56.294;14.480;2023-03-23T04:36:18;6.27;;;3.77;;
12689;SDS011;6409;56.294;14.480;2023-03-23T04:38:47;6.70;;;4.43;;
12689;SDS011;6409;56.294;14.480;2023-03-23T04:41:15;5.20;;;4.07;;
12689;SDS011;6409;56.294;14.480;2023-03-23T04:43:42;5.17;;;3.67;;
12689;SDS011;6409;56.294;14.480;2023-03-23T04:46:10;6.80;;;3.80;;
12689;SDS011;6409;56.294;14.480;2023-03-23T04:48:42;7.13;;;3.97;;
12689;SDS011;6409;56.294;14.480;2023-03-23T04:51:09;7.53;;;4.23;;
12689;SDS011;6409;56.294;14.480;2023-03-23T04:53:37;6.63;;;4.13;;
12689;SDS011;6409;56.294;14.480;2023-03-23T04:56:04;9.87;;;4.93;;
12689;SDS011;6409;56.294;14.480;2023-03-23T04:58:31;6.80;;;4.13;;
12689;SDS011;6409;56.294;14.480;2023-03-23T05:00:58;7.30;;;4.07;;
12689;SDS011;6409;56.294;14.480;2023-03-23T05:03:26;8.23;;;3.60;;
12689;SDS011;6409;56.294;14.480;2023-03-23T05:05:54;7.40;;;4.13;;
12689;SDS011;6409;56.294;14.480;2023-03-23T05:08:21;5.67;;;3.63;;
12689;SDS011;6409;56.294;14.480;2023-03-23T05:10:50;7.43;;;3.83;;
12689;SDS011;6409;56.294;14.480;2023-03-23T05:13:18;6.17;;;3.80;;
12689;SDS011;6409;56.294;14.480;2023-03-23T05:15:45;6.30;;;4.27;;
12689;SDS011;6409;56.294;14.480;2023-03-23T05:18:12;6.07;;;3.57;;
12689;SDS011;6409;56.294;14.480;2023-03-23T05:20:39;5.37;;;3.77;;
12689;SDS011;6409;56.294;14.480;2023-03-23T05:23:08;5.83;;;3.87;;
12689;SDS011;6409;56.294;14.480;2023-03-23T05:25:36;7.43;;;4.10;;
12689;SDS011;6409;56.294;14.480;2023-03-23T05:28:05;6.47;;;4.03;;
12689;SDS011;6409;56.294;14.480;2023-03-23T05:30:32;7.93;;;3.73;;
12689;SDS011;6409;56.294;14.480;2023-03-23T05:33:00;8.47;;;3.20;;
12689;SDS011;6409;56.294;14.480;2023-03-23T05:35:28;8.00;;;4.33;;
12689;SDS011;6409;56.294;14.480;2023-03-23T05:37:55;5.63;;;3.20;;
12689;SDS011;6409;56.294;14.480;2023-03-23T05:40:24;7.30;;;3.90;;
12689;SDS011;6409;56.294;14.480;2023-03-23T05:42:53;7.10;;;3.30;;
12689;SDS011;6409;56.294;14.480;2023-03-23T05:45:21;4.20;;;3.10;;
12689;SDS011;6409;56.294;14.480;2023-03-23T05:47:49;4.73;;;2.53;;
12689;SDS011;6409;56.294;14.480;2023-03-23T05:50:16;4.60;;;3.40;;
12689;SDS011;6409;56.294;14.480;2023-03-23T05:52:43;4.73;;;3.13;;
12689;SDS011;6409;56.294;14.480;2023-03-23T05:55:11;5.80;;;3.13;;
12689;SDS011;6409;56.294;14.480;2023-03-23T05:57:40;4.37;;;3.00;;
12689;SDS011;6409;56.294;14.480;2023-03-23T06:00:07;5.70;;;3.47;;
12689;SDS011;6409;56.294;14.480;2023-03-23T06:02:44;5.43;;;3.17;;
12689;SDS011;6409;56.294;14.480;2023-03-23T06:05:13;6.50;;;3.63;;
12689;SDS011;6409;56.294;14.480;2023-03-23T06:07:40;4.23;;;2.90;;
12689;SDS011;6409;56.294;14.480;2023-03-23T06:10:08;4.40;;;2.83;;
12689;SDS011;6409;56.294;14.480;2023-03-23T06:12:35;8.37;;;3.37;;
12689;SDS011;6409;56.294;14.480;2023-03-23T06:15:04;5.00;;;2.90;;
12689;SDS011;6409;56.294;14.480;2023-03-23T06:17:32;5.23;;;2.90;;
12689;SDS011;6409;56.294;14.480;2023-03-23T06:19:59;10.63;;;2.83;;
12689;SDS011;6409;56.294;14.480;2023-03-23T06:22:29;4.27;;;3.10;;
12689;SDS011;6409;56.294;14.480;2023-03-23T06:24:56;3.47;;;2.10;;
12689;SDS011;6409;56.294;14.480;2023-03-23T06:27:23;10.77;;;2.77;;
12689;SDS011;6409;56.294;14.480;2023-03-23T06:29:50;3.10;;;2.40;;
12689;SDS011;6409;56.294;14.480;2023-03-23T06:32:18;7.70;;;3.97;;
12689;SDS011;6409;56.294;14.480;2023-03-23T06:34:46;3.50;;;2.63;;
12689;SDS011;6409;56.294;14.480;2023-03-23T06:37:13;4.77;;;2.90;;
12689;SDS011;6409;56.294;14.480;2023-03-23T06:39:40;3.17;;;2.37;;
12689;SDS011;6409;56.294;14.480;2023-03-23T06:42:08;3.97;;;2.43;;
12689;SDS011;6409;56.294;14.480;2023-03-23T06:44:36;6.43;;;3.13;;
12689;SDS011;6409;56.294;14.480;2023-03-23T06:47:04;3.63;;;2.63;;
12689;SDS011;6409;56.294;14.480;2023-03-23T06:49:33;3.87;;;2.80;;
12689;SDS011;6409;56.294;14.480;2023-03-23T06:52:00;4.07;;;2.77;;
12689;SDS011;6409;56.294;14.480;2023-03-23T06:54:28;6.87;;;4.10;;
12689;SDS011;6409;56.294;14.480;2023-03-23T06:56:55;4.77;;;3.37;;
12689;SDS011;6409;56.294;14.480;2023-03-23T06:59:22;6.13;;;3.73;;
12689;SDS011;6409;56.294;14.480;2023-03-23T07:01:49;9.10;;;4.03;;
12689;SDS011;6409;56.294;14.480;2023-03-23T07:04:16;6.57;;;3.83;;
12689;SDS011;6409;56.294;14.480;2023-03-23T07:06:45;7.23;;;4.10;;
12689;SDS011;6409;56.294;14.480;2023-03-23T07:09:13;6.10;;;3.70;;
12689;SDS011;6409;56.294;14.480;2023-03-23T07:11:40;13.03;;;3.60;;
12689;SDS011;6409;56.294;14.480;2023-03-23T07:14:08;8.57;;;4.03;;
12689;SDS011;6409;56.294;14.480;2023-03-23T07:16:35;6.33;;;3.10;;
12689;SDS011;6409;56.294;14.480;2023-03-23T07:19:02;8.43;;;4.37;;
12689;SDS011;6409;56.294;14.480;2023-03-23T07:21:29;4.53;;;3.00;;
12689;SDS011;6409;56.294;14.480;2023-03-23T07:23:57;8.53;;;3.83;;
12689;SDS011;6409;56.294;14.480;2023-03-23T07:26:24;6.97;;;4.33;;
12689;SDS011;6409;56.294;14.480;2023-03-23T07:28:51;4.10;;;3.20;;
12689;SDS011;6409;56.294;14.480;2023-03-23T07:31:18;8.93;;;4.17;;
12689;SDS011;6409;56.294;14.480;2023-03-23T07:33:45;5.67;;;4.03;;
12689;SDS011;6409;56.294;14.480;2023-03-23T07:36:12;6.80;;;4.03;;
12689;SDS011;6409;56.294;14.480;2023-03-23T07:38:39;7.43;;;4.37;;
12689;SDS011;6409;56.294;14.480;2023-03-23T07:41:08;7.60;;;4.03;;
12689;SDS011;6409;56.294;14.480;2023-03-23T07:43:35;5.17;;;3.53;;
12689;SDS011;6409;56.294;14.480;2023-03-23T07:46:02;7.83;;;4.17;;
12689;SDS011;6409;56.294;14.480;2023-03-23T07:48:29;5.57;;;3.70;;
12689;SDS011;6409;56.294;14.480;2023-03-23T07:50:57;7.67;;;4.10;;
12689;SDS011;6409;56.294;14.480;2023-03-23T07:53:24;6.43;;;3.93;;
12689;SDS011;6409;56.294;14.480;2023-03-23T07:55:52;5.37;;;3.60;;
12689;SDS011;6409;56.294;14.480;2023-03-23T07:58:20;6.23;;;3.63;;
12689;SDS011;6409;56.294;14.480;2023-03-23T08:00:47;6.23;;;3.73;;
12689;SDS011;6409;56.294;14.480;2023-03-23T08:03:15;11.97;;;4.10;;
12689;SDS011;6409;56.294;14.480;2023-03-23T08:05:42;6.90;;;3.97;;
12689;SDS011;6409;56.294;14.480;2023-03-23T08:08:09;11.13;;;3.87;;
12689;SDS011;6409;56.294;14.480;2023-03-23T08:10:36;5.57;;;3.53;;
12689;SDS011;6409;56.294;14.480;2023-03-23T08:13:03;5.73;;;3.70;;
12689;SDS011;6409;56.294;14.480;2023-03-23T08:15:32;5.83;;;3.50;;
12689;SDS011;6409;56.294;14.480;2023-03-23T08:18:02;5.30;;;3.37;;
12689;SDS011;6409;56.294;14.480;2023-03-23T08:20:30;5.00;;;3.20;;
12689;SDS011;6409;56.294;14.480;2023-03-23T08:22:57;5.13;;;3.33;;
12689;SDS011;6409;56.294;14.480;2023-03-23T08:25:25;5.43;;;3.73;;
12689;SDS011;6409;56.294;14.480;2023-03-23T08:27:52;9.10;;;3.53;;
12689;SDS011;6409;56.294;14.480;2023-03-23T08:30:20;6.37;;;3.33;;
12689;SDS011;6409;56.294;14.480;2023-03-23T08:32:50;6.47;;;4.03;;
12689;SDS011;6409;56.294;14.480;2023-03-23T08:35:18;4.90;;;3.27;;
12689;SDS011;6409;56.294;14.480;2023-03-23T08:37:45;6.83;;;3.20;;
12689;SDS011;6409;56.294;14.480;2023-03-23T08:40:16;5.33;;;3.30;;
12689;SDS011;6409;56.294;14.480;2023-03-23T08:42:44;6.03;;;3.63;;
12689;SDS011;6409;56.294;14.480;2023-03-23T08:45:13;8.53;;;3.67;;
12689;SDS011;6409;56.294;14.480;2023-03-23T08:47:41;6.20;;;4.40;;
12689;SDS011;6409;56.294;14.480;2023-03-23T08:50:11;5.10;;;4.10;;
12689;SDS011;6409;56.294;14.480;2023-03-23T08:52:40;4.03;;;3.33;;
12689;SDS011;6409;56.294;14.480;2023-03-23T08:55:08;6.70;;;2.90;;
12689;SDS011;6409;56.294;14.480;2023-03-23T08:57:36;7.93;;;3.37;;
12689;SDS011;6409;56.294;14.480;2023-03-23T09:00:04;7.97;;;3.23;;
12689;SDS011;6409;56.294;14.480;2023-03-23T09:02:40;4.57;;;2.80;;
12689;SDS011;6409;56.294;14.480;2023-03-23T09:05:08;3.30;;;3.00;;
12689;SDS011;6409;56.294;14.480;2023-03-23T09:07:37;2.83;;;2.30;;
12689;SDS011;6409;56.294;14.480;2023-03-23T09:10:05;3.73;;;2.50;;
12689;SDS011;6409;56.294;14.480;2023-03-23T09:12:34;4.17;;;2.73;;
12689;SDS011;6409;56.294;14.480;2023-03-23T09:15:01;4.17;;;2.60;;
12689;SDS011;6409;56.294;14.480;2023-03-23T09:17:33;4.67;;;2.83;;
12689;SDS011;6409;56.294;14.480;2023-03-23T09:20:00;7.67;;;3.33;;
12689;SDS011;6409;56.294;14.480;2023-03-23T09:22:27;3.57;;;2.23;;
12689;SDS011;6409;56.294;14.480;2023-03-23T09:24:56;3.70;;;2.47;;
12689;SDS011;6409;56.294;14.480;2023-03-23T09:27:23;2.63;;;2.33;;
12689;SDS011;6409;56.294;14.480;2023-03-23T09:29:51;3.57;;;2.07;;
12689;SDS011;6409;56.294;14.480;2023-03-23T09:32:17;2.97;;;2.07;;
12689;SDS011;6409;56.294;14.480;2023-03-23T09:34:47;2.73;;;2.43;;
12689;SDS011;6409;56.294;14.480;2023-03-23T09:37:14;3.17;;;2.60;;
12689;SDS011;6409;56.294;14.480;2023-03-23T09:39:41;3.07;;;2.30;;
12689;SDS011;6409;56.294;14.480;2023-03-23T09:42:14;5.63;;;2.80;;
12689;SDS011;6409;56.294;14.480;2023-03-23T09:44:59;2.17;;;1.97;;
12689;SDS011;6409;56.294;14.480;2023-03-23T09:47:35;2.20;;;2.00;;
12689;SDS011;6409;56.294;14.480;2023-03-23T09:50:08;2.17;;;2.00;;
12689;SDS011;6409;56.294;14.480;2023-03-23T09:52:37;2.37;;;1.90;;
12689;SDS011;6409;56.294;14.480;2023-03-23T09:55:08;4.00;;;2.30;;
12689;SDS011;6409;56.294;14.480;2023-03-23T09:57:39;2.23;;;1.77;;
12689;SDS011;6409;56.294;14.480;2023-03-23T10:00:10;1.97;;;1.60;;
12689;SDS011;6409;56.294;14.480;2023-03-23T10:02:43;3.20;;;1.67;;
12689;SDS011;6409;56.294;14.480;2023-03-23T10:05:28;1.63;;;1.53;;
12689;SDS011;6409;56.294;14.480;2023-03-23T10:07:57;1.87;;;1.67;;
12689;SDS011;6409;56.294;14.480;2023-03-23T10:10:29;2.00;;;1.80;;
12689;SDS011;6409;56.294;14.480;2023-03-23T10:13:01;1.97;;;1.80;;
12689;SDS011;6409;56.294;14.480;2023-03-23T10:15:30;3.03;;;1.83;;
12689;SDS011;6409;56.294;14.480;2023-03-23T10:18:00;4.50;;;2.10;;
12689;SDS011;6409;56.294;14.480;2023-03-23T10:20:33;1.47;;;1.37;;
12689;SDS011;6409;56.294;14.480;2023-03-23T10:23:11;1.80;;;1.67;;
12689;SDS011;6409;56.294;14.480;2023-03-23T10:25:48;1.57;;;1.47;;
12689;SDS011;6409;56.294;14.480;2023-03-23T10:28:20;3.07;;;1.80;;
12689;SDS011;6409;56.294;14.480;2023-03-23T10:30:51;1.63;;;1.53;;
12689;SDS011;6409;56.294;14.480;2023-03-23T10:33:20;2.23;;;2.03;;
12689;SDS011;6409;56.294;14.480;2023-03-23T10:35:53;1.90;;;1.63;;
12689;SDS011;6409;56.294;14.480;2023-03-23T10:38:29;2.17;;;1.70;;
12689;SDS011;6409;56.294;14.480;2023-03-23T10:40:58;1.87;;;1.57;;
12689;SDS011;6409;56.294;14.480;2023-03-23T10:43:29;1.20;;;1.20;;
12689;SDS011;6409;56.294;14.480;2023-03-23T10:45:57;3.80;;;1.30;;
12689;SDS011;6409;56.294;14.480;2023-03-23T10:48:29;1.43;;;1.30;;
12689;SDS011;6409;56.294;14.480;2023-03-23T10:50:57;1.27;;;1.23;;
12689;SDS011;6409;56.294;14.480;2023-03-23T10:53:27;1.23;;;1.13;;
12689;SDS011;6409;56.294;14.480;2023-03-23T10:55:57;1.33;;;1.27;;
12689;SDS011;6409;56.294;14.480;2023-03-23T10:58:25;1.70;;;1.50;;
12689;SDS011;6409;56.294;14.480;2023-03-23T11:00:56;2.87;;;1.37;;
12689;SDS011;6409;56.294;14.480;2023-03-23T11:03:25;1.50;;;1.37;;
12689;SDS011;6409;56.294;14.480;2023-03-23T11:06:01;4.40;;;1.40;;
12689;SDS011;6409;56.294;14.480;2023-03-23T11:08:30;1.30;;;1.10;;
12689;SDS011;6409;56.294;14.480;2023-03-23T11:11:10;2.47;;;1.40;;
12689;SDS011;6409;56.294;14.480;2023-03-23T11:13:39;1.50;;;1.40;;
12689;SDS011;6409;56.294;14.480;2023-03-23T11:16:21;1.83;;;1.27;;
12689;SDS011;6409;56.294;14.480;2023-03-23T11:18:49;1.40;;;1.30;;
12689;SDS011;6409;56.294;14.480;2023-03-23T11:21:17;0.90;;;0.90;;
12689;SDS011;6409;56.294;14.480;2023-03-23T11:23:47;0.90;;;0.90;;
12689;SDS011;6409;56.294;14.480;2023-03-23T11:26:16;0.80;;;0.80;;
12689;SDS011;6409;56.294;14.480;2023-03-23T11:28:48;0.67;;;0.67;;
12689;SDS011;6409;56.294;14.480;2023-03-23T11:31:19;0.80;;;0.80;;
12689;SDS011;6409;56.294;14.480;2023-03-23T11:33:50;0.77;;;0.77;;
12689;SDS011;6409;56.294;14.480;2023-03-23T11:36:19;0.70;;;0.70;;
12689;SDS011;6409;56.294;14.480;2023-03-23T11:38:51;0.60;;;0.60;;
12689;SDS011;6409;56.294;14.480;2023-03-23T11:41:21;0.83;;;0.83;;
12689;SDS011;6409;56.294;14.480;2023-03-23T11:43:50;0.87;;;0.80;;
12689;SDS011;6409;56.294;14.480;2023-03-23T11:46:23;0.70;;;0.70;;
12689;SDS011;6409;56.294;14.480;2023-03-23T11:48:57;0.80;;;0.80;;
12689;SDS011;6409;56.294;14.480;2023-03-23T11:51:28;0.77;;;0.77;;
12689;SDS011;6409;56.294;14.480;2023-03-23T11:53:59;0.60;;;0.60;;
12689;SDS011;6409;56.294;14.480;2023-03-23T11:56:29;0.80;;;0.80;;
12689;SDS011;6409;56.294;14.480;2023-03-23T11:58:59;0.50;;;0.50;;
12689;SDS011;6409;56.294;14.480;2023-03-23T12:01:32;0.90;;;0.90;;
12689;SDS011;6409;56.294;14.480;2023-03-23T12:04:14;0.80;;;0.80;;
12689;SDS011;6409;56.294;14.480;2023-03-23T12:06:52;0.80;;;0.80;;
12689;SDS011;6409;56.294;14.480;2023-03-23T12:09:25;1.13;;;1.00;;
12689;SDS011;6409;56.294;14.480;2023-03-23T12:12:05;0.97;;;0.97;;
12689;SDS011;6409;56.294;14.480;2023-03-23T12:14:39;0.77;;;0.77;;
12689;SDS011;6409;56.294;14.480;2023-03-23T12:17:14;1.13;;;1.00;;
12689;SDS011;6409;56.294;14.480;2023-03-23T12:19:50;0.90;;;0.90;;
12689;SDS011;6409;56.294;14.480;2023-03-23T12:22:29;2.23;;;0.90;;
12689;SDS011;6409;56.294;14.480;2023-03-23T12:25:08;1.30;;;1.20;;
12689;SDS011;6409;56.294;14.480;2023-03-23T12:27:46;0.87;;;0.87;;
12689;SDS011;6409;56.294;14.480;2023-03-23T12:30:20;0.80;;;0.80;;
12689;SDS011;6409;56.294;14.480;2023-03-23T12:33:07;1.00;;;1.00;;
12689;SDS011;6409;56.294;14.480;2023-03-23T12:35:54;1.17;;;1.13;;
12689;SDS011;6409;56.294;14.480;2023-03-23T12:38:31;0.80;;;0.80;;
12689;SDS011;6409;56.294;14.480;2023-03-23T12:41:11;0.90;;;0.90;;
12689;SDS011;6409;56.294;14.480;2023-03-23T12:43:44;1.17;;;1.10;;
12689;SDS011;6409;56.294;14.480;2023-03-23T12:49:07;1.17;;;1.13;;
12689;SDS011;6409;56.294;14.480;2023-03-23T12:51:39;0.87;;;0.87;;
12689;SDS011;6409;56.294;14.480;2023-03-23T12:54:09;1.10;;;1.10;;
12689;SDS011;6409;56.294;14.480;2023-03-23T12:56:42;2.63;;;1.50;;
12689;SDS011;6409;56.294;14.480;2023-03-23T12:59:14;1.30;;;1.23;;
12689;SDS011;6409;56.294;14.480;2023-03-23T13:01:46;1.20;;;1.20;;
12689;SDS011;6409;56.294;14.480;2023-03-23T13:04:17;1.77;;;1.10;;
12689;SDS011;6409;56.294;14.480;2023-03-23T13:06:47;1.10;;;1.10;;
12689;SDS011;6409;56.294;14.480;2023-03-23T13:09:16;1.30;;;1.27;;
12689;SDS011;6409;56.294;14.480;2023-03-23T13:11:47;1.20;;;1.20;;
12689;SDS011;6409;56.294;14.480;2023-03-23T13:17:05;0.97;;;0.97;;
12689;SDS011;6409;56.294;14.480;2023-03-23T13:19:40;2.03;;;1.80;;
12689;SDS011;6409;56.294;14.480;2023-03-23T13:22:32;1.40;;;1.40;;
12689;SDS011;6409;56.294;14.480;2023-03-23T13:25:05;1.40;;;1.40;;
12689;SDS011;6409;56.294;14.480;2023-03-23T13:27:34;1.83;;;1.70;;
12689;SDS011;6409;56.294;14.480;2023-03-23T13:30:01;1.70;;;1.60;;
12689;SDS011;6409;56.294;14.480;2023-03-23T13:32:32;1.50;;;1.50;;
12689;SDS011;6409;56.294;14.480;2023-03-23T13:35:02;4.00;;;2.30;;
12689;SDS011;6409;56.294;14.480;2023-03-23T13:37:30;1.87;;;1.77;;
12689;SDS011;6409;56.294;14.480;2023-03-23T13:39:58;2.10;;;1.87;;
12689;SDS011;6409;56.294;14.480;2023-03-23T13:42:47;1.73;;;1.63;;
12689;SDS011;6409;56.294;14.480;2023-03-23T13:45:19;1.90;;;1.80;;
12689;SDS011;6409;56.294;14.480;2023-03-23T13:47:47;2.63;;;2.17;;
12689;SDS011;6409;56.294;14.480;2023-03-23T13:50:26;2.87;;;2.50;;
12689;SDS011;6409;56.294;14.480;2023-03-23T13:52:57;2.37;;;2.17;;
12689;SDS011;6409;56.294;14.480;2023-03-23T13:55:41;2.30;;;2.20;;
12689;SDS011;6409;56.294;14.480;2023-03-23T13:58:10;3.87;;;1.90;;
12689;SDS011;6409;56.294;14.480;2023-03-23T14:00:47;2.60;;;1.97;;
12689;SDS011;6409;56.294;14.480;2023-03-23T14:03:17;1.70;;;1.60;;
12689;SDS011;6409;56.294;14.480;2023-03-23T14:05:47;2.07;;;1.87;;
12689;SDS011;6409;56.294;14.480;2023-03-23T14:08:21;2.10;;;1.43;;
12689;SDS011;6409;56.294;14.480;2023-03-23T14:10:51;1.77;;;1.67;;
12689;SDS011;6409;56.294;14.480;2023-03-23T14:13:22;1.57;;;1.47;;
12689;SDS011;6409;56.294;14.480;2023-03-23T14:15:55;0.83;;;0.83;;
12689;SDS011;6409;56.294;14.480;2023-03-23T14:18:23;0.90;;;0.90;;
12689;SDS011;6409;56.294;14.480;2023-03-23T14:20:54;1.00;;;1.00;;
12689;SDS011;6409;56.294;14.480;2023-03-23T14:23:23;1.63;;;1.27;;
12689;SDS011;6409;56.294;14.480;2023-03-23T14:25:57;1.70;;;1.10;;
12689;SDS011;6409;56.294;14.480;2023-03-23T14:28:31;1.03;;;1.03;;
12689;SDS011;6409;56.294;14.480;2023-03-23T14:30:59;1.20;;;1.10;;
12689;SDS011;6409;56.294;14.480;2023-03-23T14:33:26;0.80;;;0.80;;
12689;SDS011;6409;56.294;14.480;2023-03-23T14:35:56;2.10;;;1.00;;
12689;SDS011;6409;56.294;14.480;2023-03-23T14:38:24;1.30;;;1.20;;
12689;SDS011;6409;56.294;14.480;2023-03-23T14:40:59;1.27;;;1.00;;
12689;SDS011;6409;56.294;14.480;2023-03-23T14:43:27;3.53;;;1.40;;
12689;SDS011;6409;56.294;14.480;2023-03-23T14:45:55;1.03;;;1.03;;
12689;SDS011;6409;56.294;14.480;2023-03-23T14:48:25;0.90;;;0.90;;
12689;SDS011;6409;56.294;14.480;2023-03-23T14:50:55;1.10;;;1.10;;
12689;SDS011;6409;56.294;14.480;2023-03-23T14:53:25;1.33;;;1.30;;
12689;SDS011;6409;56.294;14.480;2023-03-23T14:55:58;5.90;;;2.00;;
12689;SDS011;6409;56.294;14.480;2023-03-23T14:58:27;1.17;;;1.07;;
12689;SDS011;6409;56.294;14.480;2023-03-23T15:00:59;4.37;;;1.20;;
12689;SDS011;6409;56.294;14.480;2023-03-23T15:03:27;2.87;;;1.80;;
12689;SDS011;6409;56.294;14.480;2023-03-23T15:05:58;1.20;;;1.20;;
12689;SDS011;6409;56.294;14.480;2023-03-23T15:08:28;1.37;;;1.37;;
12689;SDS011;6409;56.294;14.480;2023-03-23T15:10:59;1.60;;;1.50;;
12689;SDS011;6409;56.294;14.480;2023-03-23T15:13:31;3.70;;;1.70;;